M.o.m. — WDE6166 — position and weather

sailwx.info

Track history (hours):
 
Tides and Currents Weather Stations Pressure Air Temp Water Temp Dewpoint Dewpoint Depression Visibility Wind Speed Wind Dir Waves Ship Positions

M.o.m.

Owner: Anderson, Carl W, Lopez Island, WA. More information available from US FCC via Universal Licensing System and Coast Guard Vessel Documentation Center.

Last reported at 2016-May-05 01:27 UTC. Time now 2016-May-06 20:37 UTC.
Position N 48°31' W 122°55'.

Length 11 m.

Type: Sailing vessel. MMSI: 367376770.

Date/timePositionNaut miles runAvg speedWind from/ knotsBaromVisibWave heightAir tempDewpointWater temp
2016-May-05 01:27N 48°31' W 122°55'1 0.7
2016-May-05 00:33N 48°32' W 122°55'8 6.9
2016-May-04 23:21N 48°37' W 123°05'  
2016-Apr-30 21:09N 48°41' W 123°12'0 0.0
2016-Apr-30 17:29N 48°41' W 123°12'2 2.2
2016-Apr-30 16:29N 48°39' W 123°11'6 5.7
2016-Apr-30 15:25N 48°36' W 123°03'5 6.4
2016-Apr-30 14:33N 48°32' W 122°57'2 0.1
2016-Apr-29 04:31N 48°31' W 122°55'0 0.0
2016-Apr-29 03:31N 48°31' W 122°55'0 0.0
2016-Apr-29 02:31N 48°31' W 122°55'0 0.0
2016-Apr-29 01:31N 48°31' W 122°55'0 0.0
2016-Apr-29 00:28N 48°31' W 122°55'0 0.0
2016-Apr-28 23:31N 48°31' W 122°55'0 0.0
2016-Apr-28 18:25N 48°31' W 122°55'0 0.0
2016-Apr-28 17:31N 48°31' W 122°55'0 0.2
2016-Apr-28 16:28N 48°31' W 122°55'0 0.0
2016-Apr-28 15:31N 48°31' W 122°55'0 0.0
2016-Apr-27 22:30N 48°31' W 122°55'0 0.0
2016-Apr-27 21:30N 48°31' W 122°55'0 0.0
2016-Apr-27 20:33N 48°31' W 122°55'0 0.0
2016-Apr-27 19:33N 48°31' W 122°55'0 0.0
2016-Apr-27 18:33N 48°31' W 122°55'0 0.0
2016-Apr-27 17:33N 48°31' W 122°55'  
Track history (hours):
 
Tides and Currents Weather Stations Pressure Air Temp Water Temp Dewpoint Dewpoint Depression Visibility Wind Speed Wind Dir Waves Ship Positions

M.o.m.

Owner: Anderson, Carl W, Lopez Island, WA. More information available from US FCC via Universal Licensing System and Coast Guard Vessel Documentation Center.

Last reported at 2016-May-05 01:27 UTC. Time now 2016-May-06 20:37 UTC.
Position N 48°31' W 122°55'.

Length 11 m.

Type: Sailing vessel. MMSI: 367376770.

Date/timePositionNaut miles runAvg speedWind from/ knotsBaromVisibWave heightAir tempDewpointWater temp
2016-May-05 01:27N 48°31' W 122°55'1 0.7
2016-May-05 00:33N 48°32' W 122°55'8 6.9
2016-May-04 23:21N 48°37' W 123°05'  
2016-Apr-30 21:09N 48°41' W 123°12'0 0.0
2016-Apr-30 17:29N 48°41' W 123°12'2 2.2
2016-Apr-30 16:29N 48°39' W 123°11'6 5.7
2016-Apr-30 15:25N 48°36' W 123°03'5 6.4
2016-Apr-30 14:33N 48°32' W 122°57'2 0.1
2016-Apr-29 04:31N 48°31' W 122°55'0 0.0
2016-Apr-29 03:31N 48°31' W 122°55'0 0.0
2016-Apr-29 02:31N 48°31' W 122°55'0 0.0
2016-Apr-29 01:31N 48°31' W 122°55'0 0.0
2016-Apr-29 00:28N 48°31' W 122°55'0 0.0
2016-Apr-28 23:31N 48°31' W 122°55'0 0.0
2016-Apr-28 18:25N 48°31' W 122°55'0 0.0
2016-Apr-28 17:31N 48°31' W 122°55'0 0.2
2016-Apr-28 16:28N 48°31' W 122°55'0 0.0
2016-Apr-28 15:31N 48°31' W 122°55'0 0.0
2016-Apr-27 22:30N 48°31' W 122°55'0 0.0
2016-Apr-27 21:30N 48°31' W 122°55'0 0.0
2016-Apr-27 20:33N 48°31' W 122°55'0 0.0
2016-Apr-27 19:33N 48°31' W 122°55'0 0.0
2016-Apr-27 18:33N 48°31' W 122°55'0 0.0
2016-Apr-27 17:33N 48°31' W 122°55'  

Dump ship's entire track history